createdAt,value
2022-12-20T00:00:08.435Z,0.40
2022-12-20T00:04:13.877Z,0.50
2022-12-20T00:08:17.820Z,0.50
2022-12-20T00:12:51.814Z,0.50
2022-12-20T00:16:57.091Z,0.50
2022-12-20T00:21:01.074Z,0.60
2022-12-20T00:25:13.235Z,0.60
2022-12-20T00:29:16.259Z,0.70
2022-12-20T00:33:20.726Z,0.60
2022-12-20T00:37:54.717Z,0.70
2022-12-20T00:41:57.745Z,0.70
2022-12-20T00:46:01.491Z,0.70
2022-12-20T00:50:07.267Z,0.70
2022-12-20T00:54:10.323Z,0.70
2022-12-20T00:58:47.189Z,0.70
2022-12-20T01:02:50.274Z,0.70
2022-12-20T01:06:54.767Z,0.70
2022-12-20T01:11:02.152Z,0.70
2022-12-20T01:15:36.023Z,0.60
2022-12-20T01:19:39.091Z,0.60
2022-12-20T01:23:43.767Z,0.50
2022-12-20T01:28:17.268Z,0.50
2022-12-20T01:32:20.349Z,0.50
2022-12-20T01:36:26.022Z,0.50
2022-12-20T01:41:01.585Z,0.50
2022-12-20T01:45:14.040Z,0.50
2022-12-20T01:49:20.990Z,0.40
2022-12-20T01:53:25.674Z,0.40
2022-12-20T01:57:35.845Z,0.40
2022-12-20T02:02:06.256Z,0.40
2022-12-20T02:06:18.231Z,0.40
2022-12-20T02:10:25.296Z,0.50
2022-12-20T02:14:43.495Z,0.40
2022-12-20T02:19:15.317Z,0.40
2022-12-20T02:23:36.337Z,0.40
2022-12-20T02:28:00.698Z,0.30
2022-12-20T02:32:10.430Z,0.30
2022-12-20T02:36:16.024Z,0.30
2022-12-20T02:40:24.852Z,0.30
2022-12-20T02:44:48.955Z,0.20
2022-12-20T02:48:54.990Z,0.20
2022-12-20T02:52:58.841Z,0.10
2022-12-20T02:57:06.773Z,0.10
2022-12-20T03:01:15.854Z,0.00
2022-12-20T03:05:24.548Z,0.00
2022-12-20T03:09:27.870Z,0.00
2022-12-20T03:13:30.914Z,0.00
2022-12-20T03:17:33.930Z,0.00
2022-12-20T03:21:38.630Z,0.00
2022-12-20T03:25:41.868Z,0.00
2022-12-20T03:29:46.048Z,0.00
2022-12-20T03:33:49.197Z,0.10
2022-12-20T03:37:53.723Z,0.10
2022-12-20T03:41:56.798Z,0.20
2022-12-20T03:45:59.831Z,0.20
2022-12-20T03:50:02.941Z,0.30
2022-12-20T03:54:07.529Z,0.30
2022-12-20T03:58:10.515Z,0.40
2022-12-20T04:02:13.923Z,0.40
2022-12-20T04:06:17.989Z,0.40
2022-12-20T04:10:23.968Z,0.40
2022-12-20T04:14:27.036Z,0.40
2022-12-20T04:18:30.266Z,0.40
2022-12-20T04:22:33.420Z,0.50
2022-12-20T04:26:38.400Z,0.50
2022-12-20T04:30:42.249Z,0.40
2022-12-20T04:34:45.301Z,0.40
2022-12-20T04:38:48.478Z,0.40
2022-12-20T04:42:52.995Z,0.50
2022-12-20T04:46:56.093Z,0.50
2022-12-20T04:51:08.623Z,0.60
2022-12-20T04:55:12.490Z,0.50
2022-12-20T04:59:16.996Z,0.60
2022-12-20T05:03:20.230Z,0.60
2022-12-20T05:07:23.475Z,0.70
2022-12-20T05:16:43.503Z,0.70
2022-12-20T05:21:34.728Z,0.70
2022-12-20T05:25:57.211Z,0.60
2022-12-20T05:30:16.182Z,0.70
2022-12-20T05:34:20.823Z,0.70
2022-12-20T05:38:24.089Z,0.80
2022-12-20T05:42:27.133Z,0.80
2022-12-20T05:46:30.239Z,0.80
2022-12-20T05:51:08.812Z,0.80
2022-12-20T05:55:12.110Z,0.80
2022-12-20T05:59:15.312Z,0.80
2022-12-20T06:03:18.949Z,0.80
2022-12-20T06:07:23.585Z,0.80
2022-12-20T06:11:57.400Z,0.80
2022-12-20T06:16:01.637Z,0.80
2022-12-20T06:20:05.470Z,0.80
2022-12-20T06:24:10.214Z,0.90
2022-12-20T06:28:46.894Z,0.90
2022-12-20T06:32:50.140Z,0.90
2022-12-20T06:36:53.244Z,1.00
2022-12-20T06:40:57.680Z,0.90
2022-12-20T06:45:34.757Z,0.80
2022-12-20T06:49:42.487Z,0.80
2022-12-20T06:53:45.594Z,0.90
2022-12-20T06:57:50.026Z,0.90
2022-12-20T07:01:53.186Z,0.90
2022-12-20T07:06:30.277Z,0.90
2022-12-20T07:10:35.684Z,0.90
2022-12-20T07:15:14.504Z,0.90
2022-12-20T07:19:18.189Z,0.90
2022-12-20T07:23:56.242Z,1.00
2022-12-20T07:27:59.450Z,1.10
2022-12-20T07:32:03.952Z,1.20
2022-12-20T07:36:37.942Z,1.20
2022-12-20T07:40:43.510Z,1.30
2022-12-20T07:45:17.903Z,1.30
2022-12-20T07:49:23.475Z,1.40
2022-12-20T07:53:30.146Z,1.50
2022-12-20T07:57:38.219Z,1.60
2022-12-20T08:02:09.548Z,1.60
2022-12-20T08:06:15.316Z,1.60
2022-12-20T08:10:20.777Z,1.70
2022-12-20T08:14:23.887Z,1.70
2022-12-20T08:19:01.018Z,1.80
2022-12-20T08:23:06.197Z,1.80
2022-12-20T08:27:10.040Z,1.80
2022-12-20T08:31:13.927Z,1.90
2022-12-20T08:35:47.839Z,1.80
2022-12-20T08:39:52.273Z,2.00
2022-12-20T08:43:55.483Z,2.00
2022-12-20T08:47:58.521Z,2.10
2022-12-20T08:52:35.260Z,2.20
2022-12-20T08:56:39.690Z,2.30
2022-12-20T09:00:42.812Z,2.30
2022-12-20T09:04:46.066Z,2.40
2022-12-20T09:08:49.588Z,2.50
2022-12-20T09:13:27.786Z,2.60
2022-12-20T09:17:32.272Z,2.70
2022-12-20T09:21:36.203Z,2.60
2022-12-20T09:25:39.254Z,2.70
2022-12-20T09:30:17.985Z,2.80
2022-12-20T09:34:21.022Z,2.80
2022-12-20T09:38:58.106Z,2.90
2022-12-20T09:43:01.329Z,3.10
2022-12-20T09:47:11.377Z,3.20
2022-12-20T09:51:36.704Z,3.10
2022-12-20T09:55:44.981Z,3.10
2022-12-20T09:59:50.003Z,3.10
2022-12-20T10:03:57.385Z,3.10
2022-12-20T10:08:08.660Z,3.10
2022-12-20T10:12:41.748Z,3.10
2022-12-20T10:17:15.397Z,3.10
2022-12-20T10:21:28.236Z,3.20
2022-12-20T10:25:54.804Z,3.30
2022-12-20T10:29:58.528Z,3.40
2022-12-20T10:34:01.743Z,3.60
2022-12-20T10:38:45.006Z,3.70
2022-12-20T10:42:48.192Z,3.70
2022-12-20T10:46:55.119Z,3.80
2022-12-20T10:51:03.007Z,3.80
2022-12-20T10:55:36.817Z,3.80
2022-12-20T10:59:43.831Z,3.80
2022-12-20T11:03:57.164Z,3.80
2022-12-20T11:08:34.851Z,3.90
2022-12-20T11:12:38.189Z,3.90
2022-12-20T11:16:42.170Z,3.90
2022-12-20T11:20:52.200Z,4.00
2022-12-20T11:25:11.629Z,4.00
2022-12-20T11:29:35.573Z,3.90
2022-12-20T11:34:15.323Z,3.80
2022-12-20T11:38:32.025Z,3.70
2022-12-20T11:42:48.740Z,3.70
2022-12-20T11:47:29.604Z,3.60
2022-12-20T11:51:41.051Z,3.50
2022-12-20T11:56:10.106Z,3.40
2022-12-20T12:00:16.074Z,3.40
2022-12-20T12:04:23.391Z,3.50
2022-12-20T12:08:32.823Z,3.60
2022-12-20T12:12:42.088Z,3.50
2022-12-20T12:16:51.968Z,3.50
2022-12-20T12:21:08.360Z,3.50
2022-12-20T12:25:16.717Z,3.60
2022-12-20T12:29:23.156Z,3.60
2022-12-20T12:33:38.225Z,3.60
2022-12-20T12:38:15.883Z,3.60
2022-12-20T12:42:39.162Z,3.50
2022-12-20T12:46:56.690Z,3.60
2022-12-20T12:51:02.691Z,3.70
2022-12-20T12:55:37.637Z,3.70
2022-12-20T12:59:48.460Z,3.60
2022-12-20T13:04:11.074Z,3.60
2022-12-20T13:08:48.776Z,3.50
2022-12-20T13:13:14.861Z,3.50
2022-12-20T13:17:50.781Z,3.50
2022-12-20T13:21:57.373Z,3.40
2022-12-20T13:26:00.692Z,3.40
2022-12-20T13:30:37.438Z,3.30
2022-12-20T13:34:56.126Z,3.30
2022-12-20T13:39:01.875Z,3.20
2022-12-20T13:43:09.680Z,3.20
2022-12-20T13:47:28.432Z,3.30
2022-12-20T13:51:33.144Z,3.30
2022-12-20T13:55:39.015Z,3.20
2022-12-20T14:00:17.581Z,3.10
2022-12-20T14:04:21.530Z,3.00
2022-12-20T14:08:29.452Z,3.00
2022-12-20T14:12:36.813Z,3.00
2022-12-20T14:17:18.197Z,2.90
2022-12-20T14:21:22.213Z,2.80
2022-12-20T14:25:33.096Z,2.80
2022-12-20T14:29:36.340Z,2.80
2022-12-20T14:33:40.649Z,2.70
2022-12-20T14:37:54.573Z,2.60
2022-12-20T14:42:00.866Z,2.60
2022-12-20T14:46:20.012Z,2.60
2022-12-20T14:50:27.979Z,2.60
2022-12-20T14:55:06.396Z,2.60
2022-12-20T14:59:07.938Z,2.70
2022-12-20T15:03:18.772Z,2.60
2022-12-20T15:07:31.430Z,2.50
2022-12-20T15:11:36.638Z,2.50
2022-12-20T15:15:41.347Z,2.50
2022-12-20T15:19:44.690Z,2.50
2022-12-20T15:23:51.624Z,2.40
2022-12-20T15:27:54.856Z,2.30
2022-12-20T15:32:32.216Z,2.20
2022-12-20T15:36:36.623Z,2.30
2022-12-20T15:40:46.266Z,2.40
2022-12-20T15:45:17.310Z,2.40
2022-12-20T15:49:23.094Z,2.30
2022-12-20T15:53:30.105Z,2.30
2022-12-20T15:58:02.907Z,2.30
2022-12-20T16:02:19.881Z,2.30
2022-12-20T16:06:23.289Z,2.30
2022-12-20T16:11:01.635Z,2.30
2022-12-20T16:15:05.402Z,2.30
2022-12-20T16:19:08.502Z,2.30
2022-12-20T16:23:45.147Z,2.40
2022-12-20T16:27:49.603Z,2.40
2022-12-20T16:31:52.691Z,2.30
2022-12-20T16:35:55.760Z,2.30
2022-12-20T16:40:34.600Z,2.40
2022-12-20T16:44:42.751Z,2.40
2022-12-20T16:48:46.776Z,2.30
2022-12-20T16:52:50.799Z,2.40
2022-12-20T16:56:56.174Z,2.40
2022-12-20T17:01:32.612Z,2.40
2022-12-20T17:05:39.639Z,2.40
2022-12-20T17:14:06.314Z,2.40
2022-12-20T17:18:43.321Z,2.30
2022-12-20T17:23:17.388Z,2.30
2022-12-20T17:27:55.707Z,2.30
2022-12-20T17:32:29.714Z,2.30
2022-12-20T17:37:08.837Z,2.30
2022-12-20T17:41:43.713Z,2.30
2022-12-20T17:45:47.721Z,2.20
2022-12-20T17:49:50.877Z,2.20
2022-12-20T17:54:36.648Z,2.10
2022-12-20T17:59:04.626Z,2.00
2022-12-20T18:04:03.107Z,2.00
2022-12-20T18:08:14.011Z,2.00
2022-12-20T18:13:11.791Z,2.00
2022-12-20T18:17:16.639Z,2.00
2022-12-20T18:21:50.329Z,1.90
2022-12-20T18:25:53.403Z,1.90
2022-12-20T18:29:56.519Z,2.00
2022-12-20T18:34:30.272Z,2.00
2022-12-20T18:39:09.101Z,1.90
2022-12-20T18:43:12.098Z,1.90
2022-12-20T18:47:15.143Z,1.90
2022-12-20T18:51:20.455Z,1.80
2022-12-20T18:55:25.089Z,1.90
2022-12-20T18:59:28.222Z,1.90
2022-12-20T19:03:31.688Z,1.90
2022-12-20T19:08:05.531Z,1.90
2022-12-20T19:12:10.376Z,2.00
2022-12-20T19:16:15.721Z,2.00
2022-12-20T19:20:50.854Z,2.00
2022-12-20T19:25:24.601Z,2.10
2022-12-20T19:30:03.905Z,2.10
2022-12-20T19:34:37.515Z,2.10
2022-12-20T19:39:15.630Z,2.10
2022-12-20T19:43:18.779Z,2.10
2022-12-20T19:47:57.373Z,2.10
2022-12-20T19:52:00.411Z,2.10
2022-12-20T19:56:37.352Z,2.10
2022-12-20T20:01:15.554Z,2.10
2022-12-20T20:05:51.122Z,2.20
2022-12-20T20:10:24.818Z,2.20
2022-12-20T20:14:27.913Z,2.20
2022-12-20T20:18:31.279Z,2.20
2022-12-20T20:23:11.138Z,2.20
2022-12-20T20:27:49.015Z,2.20
2022-12-20T20:32:26.194Z,2.20
2022-12-20T20:37:02.887Z,2.30
2022-12-20T20:41:42.901Z,2.30
2022-12-20T20:46:16.949Z,2.30
2022-12-20T20:50:53.765Z,2.20
2022-12-20T20:55:30.550Z,2.10
2022-12-20T21:00:10.051Z,2.10
2022-12-20T21:04:58.669Z,2.10
2022-12-20T21:09:21.511Z,2.10
2022-12-20T21:13:24.507Z,2.10
2022-12-20T21:18:03.105Z,2.00
2022-12-20T21:22:39.994Z,2.00
2022-12-20T21:27:16.771Z,2.00
2022-12-20T21:31:20.710Z,2.10
2022-12-20T21:36:00.911Z,2.10
2022-12-20T21:40:36.391Z,2.00
2022-12-20T21:45:13.069Z,2.10
2022-12-20T21:49:49.791Z,2.10
2022-12-20T21:54:28.306Z,2.10
2022-12-20T21:58:32.131Z,2.10
2022-12-20T22:03:05.775Z,2.10
2022-12-20T22:07:09.374Z,2.20
2022-12-20T22:11:15.858Z,2.20
2022-12-20T22:15:18.899Z,2.30
2022-12-20T22:19:21.944Z,2.30
2022-12-20T22:23:25.047Z,2.30
2022-12-20T22:28:03.238Z,2.30
2022-12-20T22:32:06.592Z,2.20
2022-12-20T22:36:11.761Z,2.20
2022-12-20T22:40:45.591Z,2.20
2022-12-20T22:44:50.271Z,2.20
2022-12-20T22:49:24.264Z,2.10
2022-12-20T22:53:27.572Z,2.10
2022-12-20T22:58:04.051Z,2.10
2022-12-20T23:02:42.800Z,2.10
2022-12-20T23:07:16.924Z,2.20
2022-12-20T23:12:09.739Z,2.20
2022-12-20T23:16:13.106Z,2.10
2022-12-20T23:20:34.908Z,2.20
2022-12-20T23:24:38.002Z,2.20
2022-12-20T23:28:41.245Z,2.30
2022-12-20T23:32:45.286Z,2.30
2022-12-20T23:37:23.775Z,2.30
2022-12-20T23:41:26.900Z,2.30
2022-12-20T23:45:30.002Z,2.30
2022-12-20T23:49:33.077Z,2.30
2022-12-20T23:53:38.137Z,2.30
2022-12-20T23:58:11.692Z,2.30
